Time,TemperatureF,DewpointF,PressureIn,WindDirection,WindDirectionDegrees,WindSpeedMPH,WindSpeedGustMPH,Humidity,HourlyPrecipIn,Conditions,Clouds,dailyrainin,SoftwareType,DateUTC
2013-05-20 00:11:00,61.8,62.0,29.54,North,-999,3.0,4.0,99,0.00,,,0.00,weatherlink.com 1.10,2013-05-20 05:11:00,
2013-05-20 00:26:00,61.7,62.0,29.54,North,-999,6.0,6.0,99,0.00,,,0.00,weatherlink.com 1.10,2013-05-20 05:26:00,
2013-05-20 00:41:00,61.8,62.0,29.54,North,-999,6.0,10.0,99,0.00,,,0.00,weatherlink.com 1.10,2013-05-20 05:41:00,
2013-05-20 00:56:00,61.9,62.0,29.54,North,-999,8.0,11.0,100,0.00,,,0.00,weatherlink.com 1.10,2013-05-20 05:56:00,
2013-05-20 01:11:00,61.7,62.0,29.53,North,-999,9.0,10.0,100,0.01,,,0.01,weatherlink.com 1.10,2013-05-20 06:11:00,
2013-05-20 01:26:00,61.6,62.0,29.51,North,-999,9.0,11.0,100,0.01,,,0.01,weatherlink.com 1.10,2013-05-20 06:26:00,
2013-05-20 01:41:00,61.5,62.0,29.50,North,-999,10.0,11.0,100,0.01,,,0.01,weatherlink.com 1.10,2013-05-20 06:41:00,
2013-05-20 01:56:00,61.4,61.0,29.50,North,-999,7.0,10.0,100,0.01,,,0.01,weatherlink.com 1.10,2013-05-20 06:56:00,
2013-05-20 02:11:00,61.3,61.0,29.50,North,-999,6.0,11.0,100,0.00,,,0.01,weatherlink.com 1.10,2013-05-20 07:11:00,
2013-05-20 02:26:00,61.4,61.0,29.50,North,-999,2.0,11.0,100,0.00,,,0.01,weatherlink.com 1.10,2013-05-20 07:26:00,
2013-05-20 02:41:00,61.4,61.0,29.50,North,-999,1.0,8.0,100,0.00,,,0.01,weatherlink.com 1.10,2013-05-20 07:41:00,
2013-05-20 02:56:00,61.4,61.0,29.51,North,-999,2.0,7.0,100,0.00,,,0.01,weatherlink.com 1.10,2013-05-20 07:56:00,
2013-05-20 03:11:00,61.4,61.0,29.50,North,-999,2.0,9.0,100,0.00,,,0.01,weatherlink.com 1.10,2013-05-20 08:11:00,
2013-05-20 03:26:00,61.4,61.0,29.50,North,-999,3.0,11.0,100,0.00,,,0.01,weatherlink.com 1.10,2013-05-20 08:26:00,
2013-05-20 03:41:00,61.3,61.0,29.50,North,-999,4.0,9.0,99,0.00,,,0.01,weatherlink.com 1.10,2013-05-20 08:41:00,
2013-05-20 03:56:00,61.2,61.0,29.48,North,-999,3.0,10.0,98,0.00,,,0.01,weatherlink.com 1.10,2013-05-20 08:56:00,
2013-05-20 04:11:00,60.9,60.0,29.48,North,-999,3.0,8.0,97,0.00,,,0.01,weatherlink.com 1.10,2013-05-20 09:11:00,
2013-05-20 04:26:00,60.8,60.0,29.47,North,-999,2.0,6.0,97,0.00,,,0.01,weatherlink.com 1.10,2013-05-20 09:26:00,
2013-05-20 04:41:00,60.7,60.0,29.47,North,-999,1.0,5.0,97,0.00,,,0.01,weatherlink.com 1.10,2013-05-20 09:41:00,
2013-05-20 04:56:00,60.4,60.0,29.46,North,-999,2.0,5.0,97,0.01,,,0.02,weatherlink.com 1.10,2013-05-20 09:56:00,
2013-05-20 05:11:00,60.2,60.0,29.47,North,-999,2.0,3.0,98,0.01,,,0.02,weatherlink.com 1.10,2013-05-20 10:11:00,
2013-05-20 05:26:00,60.1,60.0,29.48,North,-999,1.0,3.0,98,0.01,,,0.02,weatherlink.com 1.10,2013-05-20 10:26:00,
2013-05-20 05:41:00,60.0,60.0,29.48,North,-999,1.0,3.0,98,0.02,,,0.03,weatherlink.com 1.10,2013-05-20 10:41:00,
2013-05-20 05:56:00,60.1,60.0,29.49,North,-999,2.0,6.0,99,0.02,,,0.04,weatherlink.com 1.10,2013-05-20 10:56:00,
2013-05-20 06:11:00,60.1,60.0,29.49,North,-999,3.0,7.0,99,0.03,,,0.05,weatherlink.com 1.10,2013-05-20 11:11:00,
2013-05-20 06:26:00,60.0,60.0,29.49,North,-999,3.0,6.0,99,0.03,,,0.06,weatherlink.com 1.10,2013-05-20 11:26:00,
2013-05-20 06:41:00,60.0,60.0,29.49,North,-999,5.0,7.0,99,0.04,,,0.07,weatherlink.com 1.10,2013-05-20 11:41:00,
2013-05-20 06:56:00,59.9,60.0,29.49,North,-999,3.0,7.0,99,0.04,,,0.08,weatherlink.com 1.10,2013-05-20 11:56:00,
2013-05-20 07:11:00,59.8,60.0,29.49,North,-999,3.0,7.0,99,0.04,,,0.09,weatherlink.com 1.10,2013-05-20 12:11:00,
2013-05-20 07:26:00,59.9,60.0,29.49,North,-999,4.0,7.0,99,0.03,,,0.09,weatherlink.com 1.10,2013-05-20 12:26:00,
2013-05-20 07:41:00,60.1,60.0,29.49,North,-999,6.0,7.0,99,0.02,,,0.09,weatherlink.com 1.10,2013-05-20 12:41:00,
2013-05-20 07:56:00,60.2,60.0,29.49,North,-999,3.0,10.0,98,0.01,,,0.09,weatherlink.com 1.10,2013-05-20 12:56:00,
2013-05-20 08:11:00,60.2,59.0,29.49,North,-999,5.0,10.0,97,0.00,,,0.09,weatherlink.com 1.10,2013-05-20 13:11:00,
2013-05-20 08:26:00,59.9,59.0,29.49,North,-999,8.0,10.0,97,0.00,,,0.09,weatherlink.com 1.10,2013-05-20 13:26:00,
2013-05-20 08:41:00,59.8,59.0,29.50,North,-999,3.0,13.0,96,0.00,,,0.09,weatherlink.com 1.10,2013-05-20 13:41:00,
2013-05-20 08:57:00,59.9,59.0,29.50,North,-999,8.0,13.0,96,0.00,,,0.09,weatherlink.com 1.10,2013-05-20 13:57:00,
2013-05-20 09:12:00,60.5,59.0,29.49,North,-999,5.0,13.0,95,0.00,,,0.09,weatherlink.com 1.10,2013-05-20 14:12:00,
2013-05-20 09:27:00,61.3,60.0,29.49,North,-999,3.0,12.0,94,0.00,,,0.09,weatherlink.com 1.10,2013-05-20 14:27:00,
2013-05-20 09:42:00,62.2,59.0,29.49,North,-999,5.0,-999.0,90,-99.99,,,0.09,weatherlink.com 1.10,2013-05-20 14:42:00,
2013-05-20 09:57:00,63.9,60.0,29.49,North,-999,4.0,15.0,88,0.00,,,0.09,weatherlink.com 1.10,2013-05-20 14:57:00,
2013-05-20 10:12:00,64.7,60.0,29.49,North,-999,12.0,15.0,85,0.00,,,0.09,weatherlink.com 1.10,2013-05-20 15:12:00,
2013-05-20 10:27:00,65.4,60.0,29.49,North,-999,2.0,11.0,83,0.00,,,0.09,weatherlink.com 1.10,2013-05-20 15:27:00,
2013-05-20 10:42:00,66.6,61.0,29.48,North,-999,3.0,12.0,81,0.00,,,0.09,weatherlink.com 1.10,2013-05-20 15:42:00,
2013-05-20 10:57:00,67.5,60.0,29.48,North,-999,2.0,14.0,76,0.00,,,0.09,weatherlink.com 1.10,2013-05-20 15:57:00,
2013-05-20 11:12:00,67.3,59.0,29.48,North,-999,5.0,17.0,75,0.00,,,0.09,weatherlink.com 1.10,2013-05-20 16:12:00,
2013-05-20 11:27:00,67.9,59.0,29.48,North,-999,6.0,15.0,73,0.00,,,0.09,weatherlink.com 1.10,2013-05-20 16:27:00,
2013-05-20 11:42:00,67.7,59.0,29.49,North,-999,3.0,14.0,74,0.00,,,0.09,weatherlink.com 1.10,2013-05-20 16:42:00,
2013-05-20 11:57:00,67.6,59.0,29.49,North,-999,4.0,16.0,75,0.00,,,0.09,weatherlink.com 1.10,2013-05-20 16:57:00,
2013-05-20 12:12:00,69.4,61.0,29.48,North,-999,4.0,17.0,74,0.00,,,0.09,weatherlink.com 1.10,2013-05-20 17:12:00,
2013-05-20 12:27:00,67.6,59.0,29.48,North,-999,10.0,16.0,74,0.00,,,0.09,weatherlink.com 1.10,2013-05-20 17:27:00,
2013-05-20 12:42:00,64.3,59.0,29.49,North,-999,10.0,22.0,84,0.00,,,0.09,weatherlink.com 1.10,2013-05-20 17:42:00,
2013-05-20 12:57:00,63.6,59.0,29.49,North,-999,5.0,11.0,86,0.00,,,0.09,weatherlink.com 1.10,2013-05-20 17:57:00,
2013-05-20 13:12:00,65.8,60.0,29.49,North,-999,3.0,15.0,80,0.00,,,0.09,weatherlink.com 1.10,2013-05-20 18:12:00,
2013-05-20 13:27:00,63.5,58.0,29.49,North,-999,7.0,20.0,83,0.00,,,0.09,weatherlink.com 1.10,2013-05-20 18:27:00,
2013-05-20 13:42:00,63.2,60.0,29.49,North,-999,4.0,11.0,89,0.00,,,0.09,weatherlink.com 1.10,2013-05-20 18:42:00,
2013-05-20 14:12:00,64.4,60.0,29.49,North,-999,8.0,15.0,86,0.00,,,0.09,weatherlink.com 1.10,2013-05-20 19:12:00,
2013-05-20 14:42:00,66.3,60.0,29.49,North,-999,5.0,12.0,80,0.00,,,0.09,weatherlink.com 1.10,2013-05-20 19:42:00,
2013-05-20 14:57:00,63.8,59.0,29.50,North,-999,8.0,22.0,85,0.02,,,0.11,weatherlink.com 1.10,2013-05-20 19:57:00,
2013-05-20 15:12:00,64.5,60.0,29.50,North,-999,5.0,13.0,86,0.02,,,0.11,weatherlink.com 1.10,2013-05-20 20:12:00,
2013-05-20 15:27:00,66.2,60.0,29.50,North,-999,8.0,15.0,81,0.02,,,0.11,weatherlink.com 1.10,2013-05-20 20:27:00,
2013-05-20 15:42:00,65.6,59.0,29.50,North,-999,8.0,15.0,80,0.02,,,0.11,weatherlink.com 1.10,2013-05-20 20:42:00,
2013-05-20 15:57:00,63.2,58.0,29.51,North,-999,11.0,24.0,83,0.01,,,0.12,weatherlink.com 1.10,2013-05-20 20:57:00,
2013-05-20 16:12:00,63.7,57.0,29.51,North,-999,9.0,16.0,78,0.01,,,0.12,weatherlink.com 1.10,2013-05-20 21:12:00,
2013-05-20 16:27:00,65.6,59.0,29.51,North,-999,3.0,13.0,78,0.01,,,0.12,weatherlink.com 1.10,2013-05-20 21:27:00,
2013-05-20 16:42:00,68.1,58.0,29.51,North,-999,7.0,17.0,70,0.01,,,0.12,weatherlink.com 1.10,2013-05-20 21:42:00,
2013-05-20 16:57:00,67.2,59.0,29.51,North,-999,8.0,15.0,74,0.00,,,0.12,weatherlink.com 1.10,2013-05-20 21:57:00,
2013-05-20 17:12:00,67.6,59.0,29.51,North,-999,4.0,15.0,73,0.00,,,0.12,weatherlink.com 1.10,2013-05-20 22:12:00,
2013-05-20 17:27:00,66.6,58.0,29.52,North,-999,5.0,12.0,73,0.00,,,0.12,weatherlink.com 1.10,2013-05-20 22:27:00,
2013-05-20 17:42:00,65.8,57.0,29.52,North,-999,4.0,11.0,74,0.00,,,0.12,weatherlink.com 1.10,2013-05-20 22:42:00,
2013-05-20 18:27:00,66.2,58.0,29.52,North,-999,7.0,9.0,74,0.00,,,0.12,weatherlink.com 1.10,2013-05-20 23:27:00,
2013-05-20 18:42:00,66.8,58.0,29.52,North,-999,3.0,9.0,74,0.00,,,0.12,weatherlink.com 1.10,2013-05-20 23:42:00,
2013-05-20 18:57:00,67.0,57.0,29.52,North,-999,7.0,12.0,71,0.00,,,0.12,weatherlink.com 1.10,2013-05-20 23:57:00,
2013-05-20 19:12:00,66.9,57.0,29.52,North,-999,3.0,11.0,71,0.00,,,0.12,weatherlink.com 1.10,2013-05-21 00:12:00,
2013-05-20 19:27:00,66.7,57.0,29.52,North,-999,2.0,6.0,71,0.00,,,0.12,weatherlink.com 1.10,2013-05-21 00:27:00,
2013-05-20 19:42:00,66.4,58.0,29.53,North,-999,3.0,8.0,73,0.00,,,0.12,weatherlink.com 1.10,2013-05-21 00:42:00,
2013-05-20 19:57:00,66.0,58.0,29.52,North,-999,2.0,5.0,74,0.00,,,0.12,weatherlink.com 1.10,2013-05-21 00:57:00,
2013-05-20 20:12:00,65.7,57.0,29.53,North,-999,6.0,10.0,74,0.00,,,0.12,weatherlink.com 1.10,2013-05-21 01:12:00,
2013-05-20 20:28:00,63.5,58.0,29.53,North,-999,0.0,5.0,82,0.01,,,0.13,weatherlink.com 1.10,2013-05-21 01:28:00,
2013-05-20 20:43:00,60.8,57.0,29.55,North,-999,9.0,14.0,88,0.09,,,0.21,weatherlink.com 1.10,2013-05-21 01:43:00,
2013-05-20 20:58:00,59.0,57.0,29.55,North,-999,2.0,10.0,94,0.21,,,0.33,weatherlink.com 1.10,2013-05-21 01:58:00,
2013-05-20 21:13:00,58.3,57.0,29.54,North,-999,0.0,1.0,95,0.23,,,0.35,weatherlink.com 1.10,2013-05-21 02:13:00,
2013-05-20 21:28:00,58.1,57.0,29.54,North,-999,2.0,2.0,96,0.23,,,0.36,weatherlink.com 1.10,2013-05-21 02:28:00,
2013-05-20 21:43:00,58.0,57.0,29.54,North,-999,3.0,3.0,97,0.15,,,0.36,weatherlink.com 1.10,2013-05-21 02:43:00,
2013-05-20 21:58:00,58.1,57.0,29.54,North,-999,5.0,6.0,97,0.03,,,0.36,weatherlink.com 1.10,2013-05-21 02:58:00,
2013-05-20 22:13:00,58.2,57.0,29.54,North,-999,4.0,6.0,97,0.00,,,0.36,weatherlink.com 1.10,2013-05-21 03:13:00,
2013-05-20 22:28:00,58.4,58.0,29.54,North,-999,1.0,5.0,97,0.00,,,0.36,weatherlink.com 1.10,2013-05-21 03:28:00,
2013-05-20 22:43:00,58.5,58.0,29.54,North,-999,1.0,10.0,98,0.09,,,0.45,weatherlink.com 1.10,2013-05-21 03:43:00,
2013-05-20 22:58:00,58.6,58.0,29.54,North,-999,3.0,5.0,98,0.12,,,0.48,weatherlink.com 1.10,2013-05-21 03:58:00,
2013-05-20 23:13:00,58.5,58.0,29.52,North,-999,6.0,6.0,98,0.13,,,0.49,weatherlink.com 1.10,2013-05-21 04:13:00,
2013-05-20 23:28:00,58.8,58.0,29.51,North,-999,5.0,7.0,98,0.14,,,0.50,weatherlink.com 1.10,2013-05-21 04:28:00,
2013-05-20 23:43:00,59.2,58.0,29.51,North,-999,6.0,9.0,96,0.05,,,0.50,weatherlink.com 1.10,2013-05-21 04:43:00,
2013-05-20 23:58:00,59.0,58.0,29.51,North,-999,3.0,7.0,97,0.04,,,0.52,weatherlink.com 1.10,2013-05-21 04:58:00,